Time;durP1;ratioP1;P1;durP2;ratioP2;P2;SDS_P1;SDS_P2;PMS_P1;PMS_P2;Temp;Humidity;BMP_temperature;BMP_pressure;BME280_temperature;BME280_humidity;BME280_pressure;Samples;Min_cycle;Max_cycle;Signal;HPM_P1;HPM_P2
2021/05/09 00:02:42;;;;;;;;;17.00;15.25;;;;;;;;8727442;40;10593;-58
2021/05/09 00:08:44;;;;;;;;;16.25;15.75;;;;;;;;8727960;40;10569;-58
2021/05/09 00:14:45;;;;;;;;;17.50;14.00;;;;;;;;8728220;40;10618;-58
2021/05/09 00:20:47;;;;;;;;;13.25;12.75;;;;;;;;8728130;40;10583;-58
2021/05/09 00:26:48;;;;;;;;;23.75;18.50;;;;;;;;8727534;40;10686;-58
2021/05/09 00:32:50;;;;;;;;;22.25;18.50;;;;;;;;8728129;40;10609;-57
2021/05/09 00:38:51;;;;;;;;;14.75;14.75;;;;;;;;8725643;40;10560;-58
2021/05/09 00:44:52;;;;;;;;;15.00;15.00;;;;;;;;8727666;40;10606;-58
2021/05/09 00:50:54;;;;;;;;;20.25;17.00;;;;;;;;8725976;40;10697;-58
2021/05/09 00:56:56;;;;;;;;;21.75;21.00;;;;;;;;8727824;40;10585;-57
2021/05/09 01:03:02;;;;;;;;;22.75;19.00;;;;;;;;8727935;40;10620;-58
2021/05/09 01:09:04;;;;;;;;;21.75;18.50;;;;;;;;8726981;40;10962;-57
2021/05/09 01:15:07;;;;;;;;;17.25;15.50;;;;;;;;8726804;40;10614;-57
2021/05/09 01:21:09;;;;;;;;;19.25;17.75;;;;;;;;8747998;40;10825;-57
2021/05/09 01:27:11;;;;;;;;;22.75;20.25;;;;;;;;8750937;40;10669;-57
2021/05/09 01:33:13;;;;;;;;;19.00;16.50;;;;;;;;8749374;40;10791;-57
2021/05/09 01:39:15;;;;;;;;;19.25;16.25;;;;;;;;8748964;40;11260;-58
2021/05/09 01:45:17;;;;;;;;;21.00;21.00;;;;;;;;8750438;40;10774;-56
2021/05/09 01:51:19;;;;;;;;;19.50;19.50;;;;;;;;8748886;40;10489;-57
2021/05/09 01:57:21;;;;;;;;;19.25;19.25;;;;;;;;8750052;40;11405;-58
2021/05/09 02:03:27;;;;;;;;;16.50;16.50;;;;;;;;8747470;40;10666;-58
2021/05/09 02:09:29;;;;;;;;;18.00;18.00;;;;;;;;8749281;40;10743;-57
2021/05/09 02:15:32;;;;;;;;;18.50;17.75;;;;;;;;8749026;40;10575;-57
2021/05/09 02:21:37;;;;;;;;;20.50;20.50;;;;;;;;8748479;40;10705;-58
2021/05/09 02:27:38;;;;;;;;;20.25;19.00;;;;;;;;8750115;40;10628;-57
2021/05/09 02:33:40;;;;;;;;;21.00;18.25;;;;;;;;8747542;40;10532;-58
2021/05/09 02:39:42;;;;;;;;;24.50;20.50;;;;;;;;8748812;40;11566;-58
2021/05/09 02:45:44;;;;;;;;;20.50;19.75;;;;;;;;8748254;40;10632;-56
2021/05/09 02:51:47;;;;;;;;;19.25;16.75;;;;;;;;8749395;40;10524;-57
2021/05/09 02:57:49;;;;;;;;;18.50;18.50;;;;;;;;8750880;40;10582;-57
2021/05/09 03:03:51;;;;;;;;;19.75;18.00;;;;;;;;8753037;40;10735;-57
2021/05/09 03:09:53;;;;;;;;;21.25;19.00;;;;;;;;8753256;40;10500;-57
2021/05/09 03:15:55;;;;;;;;;21.25;19.25;;;;;;;;8751271;40;10760;-57
2021/05/09 03:21:57;;;;;;;;;15.75;15.75;;;;;;;;8753212;40;10611;-57
2021/05/09 03:27:59;;;;;;;;;21.50;20.50;;;;;;;;8752145;40;10533;-58
2021/05/09 03:34:01;;;;;;;;;19.75;17.25;;;;;;;;8751541;40;10904;-57
2021/05/09 03:40:05;;;;;;;;;22.00;20.00;;;;;;;;8752667;40;10732;-58
2021/05/09 03:46:08;;;;;;;;;22.75;21.75;;;;;;;;8752800;40;10697;-57
2021/05/09 03:52:10;;;;;;;;;20.75;19.25;;;;;;;;8752159;40;10821;-58
2021/05/09 03:58:12;;;;;;;;;25.75;24.25;;;;;;;;8751424;40;10798;-58
2021/05/09 04:04:14;;;;;;;;;19.75;18.25;;;;;;;;8750821;40;10562;-57
2021/05/09 04:10:15;;;;;;;;;18.75;18.00;;;;;;;;8750643;40;10668;-58
2021/05/09 04:16:17;;;;;;;;;22.00;22.00;;;;;;;;8751655;40;10579;-58
2021/05/09 04:22:18;;;;;;;;;21.50;20.50;;;;;;;;8751425;40;10809;-59
2021/05/09 04:28:22;;;;;;;;;21.00;20.50;;;;;;;;8749907;40;10812;-57
2021/05/09 04:34:23;;;;;;;;;19.00;19.00;;;;;;;;8751298;40;10549;-58
2021/05/09 04:40:27;;;;;;;;;22.50;18.50;;;;;;;;8751934;40;10539;-57
2021/05/09 04:46:28;;;;;;;;;19.00;19.00;;;;;;;;8750930;40;10580;-58
2021/05/09 04:52:30;;;;;;;;;17.50;16.75;;;;;;;;8750387;40;10601;-59
2021/05/09 04:58:31;;;;;;;;;15.50;15.50;;;;;;;;8750615;40;10655;-59
2021/05/09 05:04:32;;;;;;;;;18.75;17.50;;;;;;;;8750580;40;10813;-59
2021/05/09 05:10:34;;;;;;;;;12.00;11.00;;;;;;;;8751041;40;10550;-58
2021/05/09 05:16:35;;;;;;;;;18.75;17.25;;;;;;;;8749479;40;10635;-59
2021/05/09 05:22:37;;;;;;;;;14.00;14.00;;;;;;;;8749966;40;10507;-60
2021/05/09 05:28:38;;;;;;;;;15.25;12.25;;;;;;;;8751451;40;10546;-58
2021/05/09 05:34:40;;;;;;;;;14.50;14.50;;;;;;;;8749652;40;11001;-57
2021/05/09 05:40:41;;;;;;;;;14.00;11.75;;;;;;;;8749893;40;10522;-58
2021/05/09 05:46:42;;;;;;;;;9.50;8.00;;;;;;;;8750212;40;10952;-58
2021/05/09 05:52:44;;;;;;;;;11.25;11.25;;;;;;;;8750584;40;10618;-58
2021/05/09 05:58:45;;;;;;;;;9.25;7.75;;;;;;;;8750371;40;10510;-58
2021/05/09 06:04:48;;;;;;;;;6.75;6.75;;;;;;;;8750074;40;10558;-58
2021/05/09 06:10:50;;;;;;;;;6.75;6.75;;;;;;;;8749214;40;10643;-59
2021/05/09 06:16:52;;;;;;;;;9.67;9.33;;;;;;;;8748295;40;10049;-59
2021/05/09 06:23:02;;;;;;;;;8.00;7.33;;;;;;;;8750393;40;10077;-60
2021/05/09 06:29:05;;;;;;;;;11.00;11.00;;;;;;;;8748764;40;10025;-58
2021/05/09 06:35:06;;;;;;;;;9.00;9.00;;;;;;;;8748773;40;11182;-58
2021/05/09 06:41:08;;;;;;;;;7.00;7.00;;;;;;;;8750578;40;10044;-58
2021/05/09 06:47:09;;;;;;;;;8.00;8.00;;;;;;;;8749791;40;9989;-57
2021/05/09 06:53:15;;;;;;;;;11.00;9.33;;;;;;;;8755888;40;10587;-59
2021/05/09 06:59:17;;;;;;;;;10.67;10.33;;;;;;;;8746999;40;10868;-58
2021/05/09 07:05:19;;;;;;;;;8.00;7.00;;;;;;;;8748205;40;9969;-58
2021/05/09 07:11:20;;;;;;;;;8.33;8.33;;;;;;;;8748944;40;10034;-57
2021/05/09 07:17:21;;;;;;;;;7.00;7.00;;;;;;;;8749606;40;10025;-58
2021/05/09 07:23:24;;;;;;;;;9.00;7.67;;;;;;;;8747563;40;10037;-58
2021/05/09 07:29:25;;;;;;;;;8.67;8.67;;;;;;;;8747610;40;10168;-59
2021/05/09 07:35:27;;;;;;;;;9.00;9.00;;;;;;;;8748148;40;10038;-59
2021/05/09 07:41:29;;;;;;;;;6.00;6.00;;;;;;;;8748089;40;10056;-58
2021/05/09 07:47:31;;;;;;;;;6.33;6.33;;;;;;;;8750547;40;9985;-58
2021/05/09 07:53:32;;;;;;;;;8.00;6.00;;;;;;;;8751701;40;10085;-59
2021/05/09 07:59:34;;;;;;;;;6.00;6.00;;;;;;;;8751225;40;10032;-58
2021/05/09 08:05:36;;;;;;;;;6.00;6.00;;;;;;;;8750208;40;10126;-58
2021/05/09 08:11:37;;;;;;;;;7.67;7.67;;;;;;;;8751207;40;10196;-58
2021/05/09 08:17:39;;;;;;;;;7.00;7.00;;;;;;;;8750968;40;10026;-58
2021/05/09 08:23:44;;;;;;;;;8.00;7.00;;;;;;;;8750763;40;10021;-59
2021/05/09 08:29:45;;;;;;;;;7.33;7.33;;;;;;;;8752174;40;10017;-59
2021/05/09 08:35:46;;;;;;;;;6.00;6.00;;;;;;;;8750778;40;10040;-58
2021/05/09 08:41:50;;;;;;;;;6.33;6.33;;;;;;;;8751135;40;10601;-60
2021/05/09 08:47:54;;;;;;;;;9.33;8.33;;;;;;;;8751001;40;10594;-57
2021/05/09 08:53:56;;;;;;;;;6.67;6.00;;;;;;;;8750741;40;9982;-58
2021/05/09 08:59:57;;;;;;;;;8.00;6.00;;;;;;;;8751869;40;10093;-59
2021/05/09 09:06:00;;;;;;;;;8.00;7.33;;;;;;;;8750656;40;10253;-59
2021/05/09 09:12:02;;;;;;;;;7.33;7.33;;;;;;;;8750224;40;10074;-58
2021/05/09 09:18:24;;;;;;;;;7.33;6.00;;;;;;;;8750258;40;10041;-57
2021/05/09 09:24:26;;;;;;;;;7.00;6.00;;;;;;;;8750512;40;10149;-58
2021/05/09 09:30:29;;;;;;;;;9.33;6.00;;;;;;;;8750380;40;10024;-59
2021/05/09 09:36:31;;;;;;;;;6.33;6.33;;;;;;;;8750935;40;10538;-59
2021/05/09 09:42:46;;;;;;;;;5.00;5.00;;;;;;;;8750260;40;10073;-58
2021/05/09 09:48:48;;;;;;;;;8.33;7.33;;;;;;;;8750339;40;9972;-59
2021/05/09 09:54:49;;;;;;;;;4.33;3.67;;;;;;;;8749607;40;10052;-58
2021/05/09 10:00:51;;;;;;;;;5.67;5.67;;;;;;;;8748837;40;10053;-57
2021/05/09 10:06:52;;;;;;;;;9.00;7.67;;;;;;;;8740296;40;9970;-58
2021/05/09 10:12:58;;;;;;;;;8.33;8.33;;;;;;;;8749696;40;10093;-58
2021/05/09 10:19:02;;;;;;;;;8.67;8.67;;;;;;;;8749076;40;10033;-59
2021/05/09 10:25:04;;;;;;;;;8.00;6.33;;;;;;;;8749468;40;11076;-60
2021/05/09 10:31:07;;;;;;;;;10.00;9.33;;;;;;;;8749223;40;9973;-59
2021/05/09 10:37:08;;;;;;;;;9.67;8.33;;;;;;;;8749667;40;10070;-57
2021/05/09 10:43:14;;;;;;;;;10.33;10.33;;;;;;;;8749346;40;10578;-58
2021/05/09 10:49:16;;;;;;;;;8.67;7.33;;;;;;;;8748886;40;10044;-59
2021/05/09 10:55:36;;;;;;;;;20.67;18.33;;;;;;;;8748746;40;10133;-57
2021/05/09 11:01:37;;;;;;;;;18.00;14.00;;;;;;;;8749567;40;10227;-57
2021/05/09 11:07:44;;;;;;;;;9.00;9.00;;;;;;;;8746826;40;10035;-60
2021/05/09 11:14:01;;;;;;;;;7.00;6.67;;;;;;;;8748496;40;10336;-58
2021/05/09 11:20:08;;;;;;;;;8.00;7.33;;;;;;;;8750267;40;10134;-58
2021/05/09 11:26:29;;;;;;;;;10.33;9.00;;;;;;;;8752647;40;10210;-59
2021/05/09 11:32:32;;;;;;;;;15.00;12.67;;;;;;;;8753212;40;9996;-59
2021/05/09 11:38:33;;;;;;;;;9.67;8.33;;;;;;;;8752350;40;11273;-59
2021/05/09 11:44:35;;;;;;;;;6.33;6.33;;;;;;;;8751715;40;10070;-58
2021/05/09 11:50:38;;;;;;;;;9.00;9.00;;;;;;;;8751950;40;10025;-58
2021/05/09 11:57:05;;;;;;;;;7.00;7.00;;;;;;;;8751703;40;9968;-59
2021/05/09 12:03:07;;;;;;;;;13.33;12.00;;;;;;;;8748858;40;10065;-59
2021/05/09 12:09:08;;;;;;;;;7.00;7.00;;;;;;;;8750829;40;10624;-58
2021/05/09 12:15:12;;;;;;;;;14.67;14.33;;;;;;;;8751442;40;10338;-58
2021/05/09 12:21:13;;;;;;;;;9.33;9.33;;;;;;;;8751643;40;10583;-58
2021/05/09 12:27:15;;;;;;;;;11.00;10.00;;;;;;;;8751815;40;10610;-58
2021/05/09 12:33:31;;;;;;;;;9.67;9.67;;;;;;;;8749756;40;10507;-59
2021/05/09 12:39:32;;;;;;;;;6.67;5.67;;;;;;;;8750783;40;10713;-57
2021/05/09 12:45:40;;;;;;;;;13.33;13.33;;;;;;;;8750091;40;11241;-58
2021/05/09 12:52:06;;;;;;;;;14.67;12.00;;;;;;;;8753699;40;10517;-59
2021/05/09 12:58:10;;;;;;;;;11.33;10.67;;;;;;;;8750012;40;10593;-60
2021/05/09 13:04:44;;;;;;;;;7.00;7.00;;;;;;;;8751195;40;10063;-58
2021/05/09 13:10:47;;;;;;;;;9.00;9.00;;;;;;;;8751883;40;10827;-60
2021/05/09 13:16:49;;;;;;;;;10.00;7.00;;;;;;;;8750043;40;10901;-59
2021/05/09 13:22:51;;;;;;;;;13.00;13.00;;;;;;;;8751654;40;11166;-59
2021/05/09 13:28:52;;;;;;;;;11.75;11.75;;;;;;;;8750635;40;11653;-60
2021/05/09 13:34:54;;;;;;;;;10.00;10.00;;;;;;;;8749500;40;10439;-59
2021/05/09 13:40:55;;;;;;;;;10.75;10.50;;;;;;;;8749608;40;11754;-58
2021/05/09 13:46:57;;;;;;;;;9.33;6.67;;;;;;;;8749271;40;11090;-59
2021/05/09 13:52:58;;;;;;;;;7.00;7.00;;;;;;;;8749995;40;10759;-61
2021/05/09 13:59:00;;;;;;;;;6.33;6.33;;;;;;;;8749884;40;10473;-58
2021/05/09 14:05:01;;;;;;;;;10.67;9.67;;;;;;;;8749689;40;10719;-59
2021/05/09 14:11:03;;;;;;;;;14.00;13.00;;;;;;;;8726954;40;10237;-62
2021/05/09 14:17:04;;;;;;;;;11.33;9.33;;;;;;;;8725560;40;10351;-58
2021/05/09 14:23:06;;;;;;;;;7.00;7.00;;;;;;;;8726844;40;10415;-58
2021/05/09 14:29:07;;;;;;;;;9.67;9.67;;;;;;;;8725414;40;10290;-58
2021/05/09 14:35:10;;;;;;;;;7.00;7.00;;;;;;;;8483869;40;10000528;-57
2021/05/09 14:41:12;;;;;;;;;6.67;6.67;;;;;;;;8725187;40;10592;-59
2021/05/09 14:47:13;;;;;;;;;9.67;9.33;;;;;;;;8726145;40;10076;-58
2021/05/09 14:53:15;;;;;;;;;6.00;6.00;;;;;;;;8725790;40;10558;-59
2021/05/09 14:59:19;;;;;;;;;6.33;6.33;;;;;;;;8729158;40;10404;-59
2021/05/09 15:05:20;;;;;;;;;6.67;6.33;;;;;;;;8730118;40;10456;-61
2021/05/09 15:11:22;;;;;;;;;8.00;7.33;;;;;;;;8728153;40;10481;-59
2021/05/09 15:17:23;;;;;;;;;4.50;4.50;;;;;;;;8729282;40;10878;-59
2021/05/09 15:23:25;;;;;;;;;8.00;8.00;;;;;;;;8730485;40;10728;-61
2021/05/09 15:29:29;;;;;;;;;6.00;6.00;;;;;;;;8729285;40;10676;-60
2021/05/09 15:35:30;;;;;;;;;6.25;6.25;;;;;;;;8728533;40;10817;-58
2021/05/09 15:41:31;;;;;;;;;7.25;7.25;;;;;;;;8486852;40;10000602;-59
2021/05/09 15:47:34;;;;;;;;;14.67;11.00;;;;;;;;8727846;40;10143;-59
2021/05/09 15:53:35;;;;;;;;;9.25;9.25;;;;;;;;8726988;40;11395;-60
2021/05/09 15:59:37;;;;;;;;;5.25;4.50;;;;;;;;8728982;40;10868;-59
2021/05/09 16:05:38;;;;;;;;;5.75;5.25;;;;;;;;8728463;40;11157;-60
2021/05/09 16:11:40;;;;;;;;;14.33;13.33;;;;;;;;8752160;40;10096;-59
2021/05/09 16:17:41;;;;;;;;;7.33;7.33;;;;;;;;8750863;40;10168;-58
2021/05/09 16:23:44;;;;;;;;;10.33;10.33;;;;;;;;8751832;40;10120;-59
2021/05/09 16:29:45;;;;;;;;;6.67;6.33;;;;;;;;8751198;40;10045;-58
2021/05/09 16:35:47;;;;;;;;;10.33;9.00;;;;;;;;8752633;40;10247;-61
2021/05/09 16:41:49;;;;;;;;;16.67;13.00;;;;;;;;8750565;40;10025;-59
2021/05/09 16:47:50;;;;;;;;;18.33;16.00;;;;;;;;8749345;40;10504;-59
2021/05/09 16:59:53;;;;;;;;;8.00;6.00;;;;;;;;8750874;40;10011;-58
2021/05/09 17:05:55;;;;;;;;;9.00;9.00;;;;;;;;8751117;40;10561;-58
2021/05/09 17:12:01;;;;;;;;;8.00;8.00;;;;;;;;8750278;40;10057;-59
2021/05/09 17:18:04;;;;;;;;;8.00;7.00;;;;;;;;8749718;40;10072;-60
2021/05/09 17:24:06;;;;;;;;;10.00;8.33;;;;;;;;8750205;40;10097;-59
2021/05/09 17:30:08;;;;;;;;;12.33;10.00;;;;;;;;8735493;40;10597;-60
2021/05/09 17:36:13;;;;;;;;;7.67;7.67;;;;;;;;8750973;40;10167;-59
2021/05/09 17:42:15;;;;;;;;;9.33;8.67;;;;;;;;8750337;40;10091;-62
2021/05/09 17:48:17;;;;;;;;;8.33;8.33;;;;;;;;8750321;40;10061;-58
2021/05/09 17:54:18;;;;;;;;;8.67;8.33;;;;;;;;8750200;40;9993;-59
2021/05/09 18:00:21;;;;;;;;;7.33;7.33;;;;;;;;8750112;40;10026;-58
2021/05/09 18:06:22;;;;;;;;;8.00;8.00;;;;;;;;8750385;40;10604;-59
2021/05/09 18:12:43;;;;;;;;;8.00;7.00;;;;;;;;8748709;40;10009;-59
2021/05/09 18:24:54;;;;;;;;;9.00;9.00;;;;;;;;8750030;40;10058;-59
2021/05/09 18:30:57;;;;;;;;;12.00;12.00;;;;;;;;8750044;40;9989;-60
2021/05/09 18:36:59;;;;;;;;;13.00;11.67;;;;;;;;8749522;40;10115;-58
2021/05/09 18:43:01;;;;;;;;;10.67;10.67;;;;;;;;8748927;40;10780;-59
2021/05/09 18:49:02;;;;;;;;;12.67;12.67;;;;;;;;8749839;40;10046;-59
2021/05/09 18:55:04;;;;;;;;;10.33;10.33;;;;;;;;8749671;40;10037;-60
2021/05/09 19:01:06;;;;;;;;;11.33;9.33;;;;;;;;8747741;40;10562;-57
2021/05/09 19:07:09;;;;;;;;;8.00;8.00;;;;;;;;8748159;40;10181;-59
2021/05/09 19:13:10;;;;;;;;;12.00;11.00;;;;;;;;8748354;40;10051;-59
2021/05/09 19:19:12;;;;;;;;;10.33;10.33;;;;;;;;8748303;40;10047;-57
2021/05/09 19:25:13;;;;;;;;;10.67;9.00;;;;;;;;8747692;40;10078;-58
2021/05/09 19:31:15;;;;;;;;;7.00;7.00;;;;;;;;8748234;40;10091;-59
2021/05/09 19:37:17;;;;;;;;;10.00;9.00;;;;;;;;8748394;40;9998;-59
2021/05/09 19:43:18;;;;;;;;;7.00;7.00;;;;;;;;8752046;40;10038;-60
2021/05/09 19:49:20;;;;;;;;;10.33;10.33;;;;;;;;8751387;40;9998;-59
2021/05/09 19:55:22;;;;;;;;;12.25;11.00;;;;;;;;8727823;40;10501;-59
2021/05/09 20:01:23;;;;;;;;;7.67;7.67;;;;;;;;8726702;40;10034;-56
2021/05/09 20:07:30;;;;;;;;;7.75;7.50;;;;;;;;8728894;40;10448;-59
2021/05/09 20:13:32;;;;;;;;;9.50;8.00;;;;;;;;8727888;40;10707;-57
2021/05/09 20:19:33;;;;;;;;;11.67;10.67;;;;;;;;8727647;40;10067;-59
2021/05/09 20:25:35;;;;;;;;;8.75;8.75;;;;;;;;8727383;40;10592;-59
2021/05/09 20:31:38;;;;;;;;;10.67;10.67;;;;;;;;8734098;40;10038;-58
2021/05/09 20:37:40;;;;;;;;;9.25;9.25;;;;;;;;8752029;40;10534;-59
2021/05/09 20:43:41;;;;;;;;;13.75;11.75;;;;;;;;8751322;40;11053;-58
2021/05/09 20:49:43;;;;;;;;;13.00;13.00;;;;;;;;8750397;40;10701;-57
2021/05/09 20:55:47;;;;;;;;;16.25;16.25;;;;;;;;8750763;40;11161;-58
2021/05/09 21:01:48;;;;;;;;;7.00;5.50;;;;;;;;8751265;40;10501;-57
2021/05/09 21:07:50;;;;;;;;;14.25;14.25;;;;;;;;8751465;40;10680;-58
2021/05/09 21:13:52;;;;;;;;;14.00;13.00;;;;;;;;8750289;40;10660;-57
2021/05/09 21:19:53;;;;;;;;;14.00;14.00;;;;;;;;8750537;40;10571;-58
2021/05/09 21:25:54;;;;;;;;;14.50;11.75;;;;;;;;8750772;40;10563;-58
2021/05/09 21:31:56;;;;;;;;;15.00;14.00;;;;;;;;8749705;40;10509;-57
2021/05/09 21:37:58;;;;;;;;;15.00;14.00;;;;;;;;8751136;40;10612;-56
2021/05/09 21:44:00;;;;;;;;;11.50;11.50;;;;;;;;8750726;40;10574;-58
2021/05/09 21:50:03;;;;;;;;;12.25;11.00;;;;;;;;8750526;40;10529;-58
2021/05/09 21:56:04;;;;;;;;;11.50;11.50;;;;;;;;8750297;40;10499;-57
2021/05/09 22:02:06;;;;;;;;;12.75;11.75;;;;;;;;8750957;40;10593;-57
2021/05/09 22:08:11;;;;;;;;;12.00;12.00;;;;;;;;8751375;40;10512;-59
2021/05/09 22:14:12;;;;;;;;;12.75;11.00;;;;;;;;8725899;40;10511;-58
2021/05/09 22:20:15;;;;;;;;;11.75;10.75;;;;;;;;8726216;40;10488;-57
2021/05/09 22:26:17;;;;;;;;;10.00;10.00;;;;;;;;8724712;40;10633;-59
2021/05/09 22:32:18;;;;;;;;;13.00;11.75;;;;;;;;8725815;40;10571;-57
2021/05/09 22:38:20;;;;;;;;;12.00;9.25;;;;;;;;8725784;40;10484;-58
2021/05/09 22:44:21;;;;;;;;;12.25;12.25;;;;;;;;8725908;40;10592;-58
2021/05/09 22:50:23;;;;;;;;;11.75;10.75;;;;;;;;8724827;40;10754;-57
2021/05/09 22:56:24;;;;;;;;;11.75;10.75;;;;;;;;8726460;40;11283;-58
2021/05/09 23:02:26;;;;;;;;;14.00;13.25;;;;;;;;8725890;40;10894;-58
2021/05/09 23:08:27;;;;;;;;;10.25;10.00;;;;;;;;8726138;40;10658;-58
2021/05/09 23:14:29;;;;;;;;;11.00;9.50;;;;;;;;8724810;40;10487;-58
2021/05/09 23:26:41;;;;;;;;;14.75;14.00;;;;;;;;8748628;40;10516;-58
2021/05/09 23:32:42;;;;;;;;;17.75;16.75;;;;;;;;8752031;40;11537;-57
2021/05/09 23:38:44;;;;;;;;;19.75;17.75;;;;;;;;8751332;40;10575;-58
2021/05/09 23:44:46;;;;;;;;;20.25;17.75;;;;;;;;8753112;40;10754;-58
2021/05/09 23:50:47;;;;;;;;;14.25;11.50;;;;;;;;8751424;40;10541;-59
2021/05/09 23:56:49;;;;;;;;;17.50;15.50;;;;;;;;8751145;40;11169;-57
